sensor_id;sensor_type;location;lat;lon;timestamp;P1;durP1;ratioP1;P2;durP2;ratioP2
12437;SDS011;6283;51.330;12.374;2022-09-03T00:00:12;2.75;;;1.42;;
12437;SDS011;6283;51.330;12.374;2022-09-03T00:05:19;1.55;;;1.20;;
12437;SDS011;6283;51.330;12.374;2022-09-03T00:10:40;4.75;;;2.20;;
12437;SDS011;6283;51.330;12.374;2022-09-03T00:13:08;1.20;;;1.10;;
12437;SDS011;6283;51.330;12.374;2022-09-03T00:15:38;1.05;;;1.00;;
12437;SDS011;6283;51.330;12.374;2022-09-03T00:18:14;1.52;;;1.23;;
12437;SDS011;6283;51.330;12.374;2022-09-03T00:20:45;1.30;;;1.20;;
12437;SDS011;6283;51.330;12.374;2022-09-03T00:23:26;0.82;;;0.82;;
12437;SDS011;6283;51.330;12.374;2022-09-03T00:26:03;1.30;;;0.95;;
12437;SDS011;6283;51.330;12.374;2022-09-03T00:28:35;2.05;;;1.10;;
12437;SDS011;6283;51.330;12.374;2022-09-03T00:31:41;1.23;;;1.00;;
12437;SDS011;6283;51.330;12.374;2022-09-03T00:34:25;1.58;;;1.38;;
12437;SDS011;6283;51.330;12.374;2022-09-03T00:36:55;2.40;;;1.30;;
12437;SDS011;6283;51.330;12.374;2022-09-03T00:39:22;1.20;;;1.13;;
12437;SDS011;6283;51.330;12.374;2022-09-03T00:47:50;1.77;;;1.20;;
12437;SDS011;6283;51.330;12.374;2022-09-03T00:53:14;2.30;;;1.13;;
12437;SDS011;6283;51.330;12.374;2022-09-03T00:55:59;1.80;;;1.10;;
12437;SDS011;6283;51.330;12.374;2022-09-03T01:00:53;1.23;;;1.13;;
12437;SDS011;6283;51.330;12.374;2022-09-03T01:03:41;1.40;;;1.20;;
12437;SDS011;6283;51.330;12.374;2022-09-03T01:09:19;3.35;;;1.20;;
12437;SDS011;6283;51.330;12.374;2022-09-03T01:11:58;1.30;;;1.20;;
12437;SDS011;6283;51.330;12.374;2022-09-03T01:25:35;3.95;;;1.48;;
12437;SDS011;6283;51.330;12.374;2022-09-03T01:33:43;2.35;;;1.20;;
12437;SDS011;6283;51.330;12.374;2022-09-03T01:39:00;1.42;;;1.13;;
12437;SDS011;6283;51.330;12.374;2022-09-03T01:50:37;2.83;;;1.05;;
12437;SDS011;6283;51.330;12.374;2022-09-03T01:56:01;1.87;;;1.20;;
12437;SDS011;6283;51.330;12.374;2022-09-03T01:58:41;2.83;;;1.30;;
12437;SDS011;6283;51.330;12.374;2022-09-03T02:01:15;3.43;;;1.20;;
12437;SDS011;6283;51.330;12.374;2022-09-03T02:03:57;1.47;;;1.30;;
12437;SDS011;6283;51.330;12.374;2022-09-03T02:06:24;1.30;;;1.20;;
12437;SDS011;6283;51.330;12.374;2022-09-03T02:08:51;1.67;;;1.33;;
12437;SDS011;6283;51.330;12.374;2022-09-03T02:11:18;2.03;;;1.30;;
12437;SDS011;6283;51.330;12.374;2022-09-03T02:13:44;3.20;;;1.10;;
12437;SDS011;6283;51.330;12.374;2022-09-03T02:16:14;2.20;;;1.10;;
12437;SDS011;6283;51.330;12.374;2022-09-03T02:18:50;1.60;;;1.50;;
12437;SDS011;6283;51.330;12.374;2022-09-03T02:21:27;1.73;;;1.57;;
12437;SDS011;6283;51.330;12.374;2022-09-03T02:24:02;2.50;;;1.70;;
12437;SDS011;6283;51.330;12.374;2022-09-03T02:26:29;1.70;;;1.30;;
12437;SDS011;6283;51.330;12.374;2022-09-03T02:28:54;2.33;;;1.10;;
12437;SDS011;6283;51.330;12.374;2022-09-03T02:31:21;1.83;;;1.30;;
12437;SDS011;6283;51.330;12.374;2022-09-03T02:33:48;1.40;;;1.30;;
12437;SDS011;6283;51.330;12.374;2022-09-03T02:36:16;1.23;;;1.13;;
12437;SDS011;6283;51.330;12.374;2022-09-03T02:38:44;1.53;;;1.20;;
12437;SDS011;6283;51.330;12.374;2022-09-03T02:41:11;1.30;;;0.97;;
12437;SDS011;6283;51.330;12.374;2022-09-03T02:46:28;1.50;;;1.40;;
12437;SDS011;6283;51.330;12.374;2022-09-03T02:48:58;1.80;;;1.67;;
12437;SDS011;6283;51.330;12.374;2022-09-03T02:51:24;2.00;;;1.30;;
12437;SDS011;6283;51.330;12.374;2022-09-03T02:53:49;1.63;;;1.20;;
12437;SDS011;6283;51.330;12.374;2022-09-03T02:56:15;1.50;;;1.40;;
12437;SDS011;6283;51.330;12.374;2022-09-03T02:58:40;1.97;;;1.20;;
12437;SDS011;6283;51.330;12.374;2022-09-03T03:01:06;1.40;;;1.17;;
12437;SDS011;6283;51.330;12.374;2022-09-03T03:03:32;2.63;;;1.50;;
12437;SDS011;6283;51.330;12.374;2022-09-03T03:06:03;2.27;;;1.47;;
12437;SDS011;6283;51.330;12.374;2022-09-03T03:08:30;1.60;;;1.40;;
12437;SDS011;6283;51.330;12.374;2022-09-03T03:10:57;1.60;;;1.23;;
12437;SDS011;6283;51.330;12.374;2022-09-03T03:13:25;1.53;;;1.43;;
12437;SDS011;6283;51.330;12.374;2022-09-03T03:16:02;1.47;;;1.37;;
12437;SDS011;6283;51.330;12.374;2022-09-03T03:18:32;1.40;;;1.30;;
12437;SDS011;6283;51.330;12.374;2022-09-03T03:21:05;1.50;;;1.40;;
12437;SDS011;6283;51.330;12.374;2022-09-03T03:23:33;1.50;;;1.40;;
12437;SDS011;6283;51.330;12.374;2022-09-03T03:26:03;1.50;;;1.40;;
12437;SDS011;6283;51.330;12.374;2022-09-03T03:28:33;2.80;;;1.43;;
12437;SDS011;6283;51.330;12.374;2022-09-03T03:33:39;3.43;;;1.70;;
12437;SDS011;6283;51.330;12.374;2022-09-03T03:36:05;2.27;;;1.60;;
12437;SDS011;6283;51.330;12.374;2022-09-03T03:38:35;1.70;;;1.60;;
12437;SDS011;6283;51.330;12.374;2022-09-03T03:41:14;1.50;;;1.40;;
12437;SDS011;6283;51.330;12.374;2022-09-03T03:43:40;2.23;;;1.40;;
12437;SDS011;6283;51.330;12.374;2022-09-03T03:46:06;1.67;;;1.57;;
12437;SDS011;6283;51.330;12.374;2022-09-03T03:48:32;1.43;;;1.33;;
12437;SDS011;6283;51.330;12.374;2022-09-03T03:51:02;2.43;;;1.53;;
12437;SDS011;6283;51.330;12.374;2022-09-03T03:53:31;2.07;;;1.40;;
12437;SDS011;6283;51.330;12.374;2022-09-03T03:56:01;2.93;;;1.70;;
12437;SDS011;6283;51.330;12.374;2022-09-03T03:58:29;1.10;;;1.10;;
12437;SDS011;6283;51.330;12.374;2022-09-03T04:01:02;1.60;;;1.50;;
12437;SDS011;6283;51.330;12.374;2022-09-03T04:03:29;2.27;;;1.60;;
12437;SDS011;6283;51.330;12.374;2022-09-03T04:05:55;2.23;;;1.50;;
12437;SDS011;6283;51.330;12.374;2022-09-03T04:08:23;1.87;;;1.57;;
12437;SDS011;6283;51.330;12.374;2022-09-03T04:10:49;2.47;;;1.60;;
12437;SDS011;6283;51.330;12.374;2022-09-03T04:13:15;2.37;;;1.80;;
12437;SDS011;6283;51.330;12.374;2022-09-03T04:15:41;2.47;;;1.70;;
12437;SDS011;6283;51.330;12.374;2022-09-03T04:18:07;1.40;;;1.30;;
12437;SDS011;6283;51.330;12.374;2022-09-03T04:20:36;1.97;;;1.60;;
12437;SDS011;6283;51.330;12.374;2022-09-03T04:23:02;2.13;;;1.70;;
12437;SDS011;6283;51.330;12.374;2022-09-03T04:25:28;3.10;;;1.63;;
12437;SDS011;6283;51.330;12.374;2022-09-03T04:27:54;1.67;;;1.57;;
12437;SDS011;6283;51.330;12.374;2022-09-03T04:30:20;1.90;;;1.40;;
12437;SDS011;6283;51.330;12.374;2022-09-03T04:32:48;1.70;;;1.53;;
12437;SDS011;6283;51.330;12.374;2022-09-03T04:35:17;1.97;;;1.87;;
12437;SDS011;6283;51.330;12.374;2022-09-03T04:37:45;2.50;;;1.80;;
12437;SDS011;6283;51.330;12.374;2022-09-03T04:40:10;1.60;;;1.50;;
12437;SDS011;6283;51.330;12.374;2022-09-03T04:42:36;2.10;;;1.47;;
12437;SDS011;6283;51.330;12.374;2022-09-03T04:45:02;1.60;;;1.50;;
12437;SDS011;6283;51.330;12.374;2022-09-03T04:47:27;3.33;;;1.90;;
12437;SDS011;6283;51.330;12.374;2022-09-03T04:49:53;1.60;;;1.50;;
12437;SDS011;6283;51.330;12.374;2022-09-03T04:52:19;2.33;;;1.40;;
12437;SDS011;6283;51.330;12.374;2022-09-03T04:54:45;1.60;;;1.50;;
12437;SDS011;6283;51.330;12.374;2022-09-03T04:57:11;1.50;;;1.40;;
12437;SDS011;6283;51.330;12.374;2022-09-03T04:59:37;1.73;;;1.40;;
12437;SDS011;6283;51.330;12.374;2022-09-03T05:02:04;1.60;;;1.33;;
12437;SDS011;6283;51.330;12.374;2022-09-03T05:04:32;3.97;;;1.90;;
12437;SDS011;6283;51.330;12.374;2022-09-03T05:06:57;3.70;;;1.87;;
12437;SDS011;6283;51.330;12.374;2022-09-03T05:09:23;2.57;;;1.50;;
12437;SDS011;6283;51.330;12.374;2022-09-03T05:11:48;1.67;;;1.57;;
12437;SDS011;6283;51.330;12.374;2022-09-03T05:14:14;2.23;;;2.03;;
12437;SDS011;6283;51.330;12.374;2022-09-03T05:16:39;2.87;;;1.50;;
12437;SDS011;6283;51.330;12.374;2022-09-03T05:19:05;2.40;;;1.90;;
12437;SDS011;6283;51.330;12.374;2022-09-03T05:21:32;2.77;;;1.60;;
12437;SDS011;6283;51.330;12.374;2022-09-03T05:24:00;2.43;;;1.50;;
12437;SDS011;6283;51.330;12.374;2022-09-03T05:26:27;2.50;;;1.40;;
12437;SDS011;6283;51.330;12.374;2022-09-03T05:28:55;1.87;;;1.33;;
12437;SDS011;6283;51.330;12.374;2022-09-03T05:31:24;1.40;;;1.30;;
12437;SDS011;6283;51.330;12.374;2022-09-03T05:33:53;3.60;;;1.70;;
12437;SDS011;6283;51.330;12.374;2022-09-03T05:36:22;2.57;;;1.57;;
12437;SDS011;6283;51.330;12.374;2022-09-03T05:38:49;1.97;;;1.77;;
12437;SDS011;6283;51.330;12.374;2022-09-03T05:41:18;4.00;;;1.60;;
12437;SDS011;6283;51.330;12.374;2022-09-03T05:43:46;1.33;;;1.23;;
12437;SDS011;6283;51.330;12.374;2022-09-03T05:46:19;3.50;;;2.00;;
12437;SDS011;6283;51.330;12.374;2022-09-03T05:48:45;1.87;;;1.60;;
12437;SDS011;6283;51.330;12.374;2022-09-03T05:51:14;2.00;;;1.80;;
12437;SDS011;6283;51.330;12.374;2022-09-03T05:53:41;1.50;;;1.40;;
12437;SDS011;6283;51.330;12.374;2022-09-03T05:56:09;1.83;;;1.60;;
12437;SDS011;6283;51.330;12.374;2022-09-03T05:58:42;2.20;;;1.70;;
12437;SDS011;6283;51.330;12.374;2022-09-03T06:01:19;1.90;;;1.70;;
12437;SDS011;6283;51.330;12.374;2022-09-03T06:06:22;2.43;;;1.70;;
12437;SDS011;6283;51.330;12.374;2022-09-03T06:08:49;3.43;;;1.53;;
12437;SDS011;6283;51.330;12.374;2022-09-03T06:11:19;3.50;;;1.70;;
12437;SDS011;6283;51.330;12.374;2022-09-03T06:13:47;6.70;;;1.80;;
12437;SDS011;6283;51.330;12.374;2022-09-03T06:16:13;1.80;;;1.60;;
12437;SDS011;6283;51.330;12.374;2022-09-03T06:18:38;1.50;;;1.40;;
12437;SDS011;6283;51.330;12.374;2022-09-03T06:21:05;2.63;;;1.93;;
12437;SDS011;6283;51.330;12.374;2022-09-03T06:23:31;1.83;;;1.40;;
12437;SDS011;6283;51.330;12.374;2022-09-03T06:26:11;2.27;;;1.60;;
12437;SDS011;6283;51.330;12.374;2022-09-03T06:28:40;2.33;;;1.50;;
12437;SDS011;6283;51.330;12.374;2022-09-03T06:31:10;2.13;;;1.47;;
12437;SDS011;6283;51.330;12.374;2022-09-03T06:33:38;1.70;;;1.60;;
12437;SDS011;6283;51.330;12.374;2022-09-03T06:36:07;2.70;;;1.97;;
12437;SDS011;6283;51.330;12.374;2022-09-03T06:38:37;2.37;;;1.73;;
12437;SDS011;6283;51.330;12.374;2022-09-03T06:41:13;1.50;;;1.40;;
12437;SDS011;6283;51.330;12.374;2022-09-03T06:43:45;2.57;;;1.50;;
12437;SDS011;6283;51.330;12.374;2022-09-03T06:46:14;1.40;;;1.30;;
12437;SDS011;6283;51.330;12.374;2022-09-03T06:48:42;1.50;;;1.40;;
12437;SDS011;6283;51.330;12.374;2022-09-03T06:51:12;2.60;;;1.70;;
12437;SDS011;6283;51.330;12.374;2022-09-03T06:53:40;2.03;;;1.50;;
12437;SDS011;6283;51.330;12.374;2022-09-03T06:56:09;1.92;;;1.48;;
12437;SDS011;6283;51.330;12.374;2022-09-03T06:58:39;2.63;;;1.40;;
12437;SDS011;6283;51.330;12.374;2022-09-03T07:01:13;3.75;;;1.40;;
12437;SDS011;6283;51.330;12.374;2022-09-03T07:03:41;2.20;;;1.38;;
12437;SDS011;6283;51.330;12.374;2022-09-03T07:06:09;2.13;;;1.42;;
12437;SDS011;6283;51.330;12.374;2022-09-03T07:08:35;1.73;;;1.33;;
12437;SDS011;6283;51.330;12.374;2022-09-03T07:11:05;2.72;;;1.20;;
12437;SDS011;6283;51.330;12.374;2022-09-03T07:13:36;2.13;;;1.35;;
12437;SDS011;6283;51.330;12.374;2022-09-03T07:16:05;1.50;;;1.40;;
12437;SDS011;6283;51.330;12.374;2022-09-03T07:18:32;4.15;;;1.20;;
12437;SDS011;6283;51.330;12.374;2022-09-03T07:21:02;2.95;;;1.45;;
12437;SDS011;6283;51.330;12.374;2022-09-03T07:23:33;1.92;;;1.60;;
12437;SDS011;6283;51.330;12.374;2022-09-03T07:26:02;1.48;;;1.38;;
12437;SDS011;6283;51.330;12.374;2022-09-03T07:28:29;2.38;;;2.00;;
12437;SDS011;6283;51.330;12.374;2022-09-03T07:31:05;1.58;;;1.40;;
12437;SDS011;6283;51.330;12.374;2022-09-03T07:33:36;2.72;;;1.33;;
12437;SDS011;6283;51.330;12.374;2022-09-03T07:36:03;1.95;;;1.50;;
12437;SDS011;6283;51.330;12.374;2022-09-03T07:38:31;2.63;;;1.60;;
12437;SDS011;6283;51.330;12.374;2022-09-03T07:40:58;2.35;;;1.27;;
12437;SDS011;6283;51.330;12.374;2022-09-03T07:43:29;1.60;;;1.30;;
12437;SDS011;6283;51.330;12.374;2022-09-03T07:45:58;2.03;;;1.13;;
12437;SDS011;6283;51.330;12.374;2022-09-03T07:48:25;1.75;;;1.65;;
12437;SDS011;6283;51.330;12.374;2022-09-03T07:50:51;1.55;;;1.45;;
12437;SDS011;6283;51.330;12.374;2022-09-03T07:53:17;1.50;;;1.40;;
12437;SDS011;6283;51.330;12.374;2022-09-03T07:55:44;1.98;;;1.23;;
12437;SDS011;6283;51.330;12.374;2022-09-03T07:58:11;3.40;;;1.40;;
12437;SDS011;6283;51.330;12.374;2022-09-03T08:00:38;2.35;;;1.13;;
12437;SDS011;6283;51.330;12.374;2022-09-03T08:03:04;3.28;;;1.85;;
12437;SDS011;6283;51.330;12.374;2022-09-03T08:05:32;2.58;;;1.35;;
12437;SDS011;6283;51.330;12.374;2022-09-03T08:08:00;1.67;;;1.58;;
12437;SDS011;6283;51.330;12.374;2022-09-03T08:10:27;1.77;;;1.50;;
12437;SDS011;6283;51.330;12.374;2022-09-03T08:12:54;2.10;;;1.40;;
12437;SDS011;6283;51.330;12.374;2022-09-03T08:15:21;3.75;;;1.58;;
12437;SDS011;6283;51.330;12.374;2022-09-03T08:17:47;4.82;;;1.70;;
12437;SDS011;6283;51.330;12.374;2022-09-03T08:20:13;3.00;;;1.70;;
12437;SDS011;6283;51.330;12.374;2022-09-03T08:22:39;3.35;;;1.60;;
12437;SDS011;6283;51.330;12.374;2022-09-03T08:25:05;2.95;;;1.55;;
12437;SDS011;6283;51.330;12.374;2022-09-03T08:27:31;1.80;;;1.63;;
12437;SDS011;6283;51.330;12.374;2022-09-03T08:29:57;2.92;;;1.60;;
12437;SDS011;6283;51.330;12.374;2022-09-03T08:32:22;1.60;;;1.50;;
12437;SDS011;6283;51.330;12.374;2022-09-03T08:34:48;3.30;;;1.50;;
12437;SDS011;6283;51.330;12.374;2022-09-03T08:37:16;3.22;;;1.50;;
12437;SDS011;6283;51.330;12.374;2022-09-03T08:39:42;4.82;;;2.03;;
12437;SDS011;6283;51.330;12.374;2022-09-03T08:42:16;5.57;;;2.20;;
12437;SDS011;6283;51.330;12.374;2022-09-03T08:47:44;3.88;;;1.88;;
12437;SDS011;6283;51.330;12.374;2022-09-03T08:53:14;2.72;;;1.58;;
12437;SDS011;6283;51.330;12.374;2022-09-03T08:58:18;1.92;;;1.75;;
12437;SDS011;6283;51.330;12.374;2022-09-03T09:06:07;3.15;;;1.63;;
12437;SDS011;6283;51.330;12.374;2022-09-03T09:11:38;1.83;;;1.65;;
12437;SDS011;6283;51.330;12.374;2022-09-03T09:14:25;3.30;;;1.63;;
12437;SDS011;6283;51.330;12.374;2022-09-03T09:19:46;4.50;;;1.80;;
12437;SDS011;6283;51.330;12.374;2022-09-03T09:22:40;1.63;;;1.52;;
12437;SDS011;6283;51.330;12.374;2022-09-03T09:25:11;3.05;;;1.67;;
12437;SDS011;6283;51.330;12.374;2022-09-03T09:27:47;1.50;;;1.40;;
12437;SDS011;6283;51.330;12.374;2022-09-03T09:30:22;2.47;;;1.88;;
12437;SDS011;6283;51.330;12.374;2022-09-03T09:32:47;2.20;;;1.50;;
12437;SDS011;6283;51.330;12.374;2022-09-03T09:35:14;1.70;;;1.60;;
12437;SDS011;6283;51.330;12.374;2022-09-03T09:40:28;1.50;;;1.40;;
12437;SDS011;6283;51.330;12.374;2022-09-03T09:45:40;2.05;;;1.65;;
12437;SDS011;6283;51.330;12.374;2022-09-03T09:48:30;2.15;;;1.75;;
12437;SDS011;6283;51.330;12.374;2022-09-03T09:51:05;2.08;;;1.60;;
12437;SDS011;6283;51.330;12.374;2022-09-03T09:53:35;1.55;;;1.40;;
12437;SDS011;6283;51.330;12.374;2022-09-03T09:56:01;1.63;;;1.45;;
12437;SDS011;6283;51.330;12.374;2022-09-03T09:58:27;1.80;;;1.40;;
12437;SDS011;6283;51.330;12.374;2022-09-03T10:00:59;1.50;;;1.40;;
12437;SDS011;6283;51.330;12.374;2022-09-03T10:03:32;2.85;;;1.42;;
12437;SDS011;6283;51.330;12.374;2022-09-03T10:06:02;1.48;;;1.38;;
12437;SDS011;6283;51.330;12.374;2022-09-03T10:08:52;3.92;;;1.67;;
12437;SDS011;6283;51.330;12.374;2022-09-03T10:11:29;2.03;;;1.40;;
12437;SDS011;6283;51.330;12.374;2022-09-03T10:13:55;5.80;;;1.80;;
12437;SDS011;6283;51.330;12.374;2022-09-03T10:16:22;2.92;;;1.80;;
12437;SDS011;6283;51.330;12.374;2022-09-03T10:21:44;1.75;;;1.55;;
12437;SDS011;6283;51.330;12.374;2022-09-03T10:24:45;1.75;;;1.65;;
12437;SDS011;6283;51.330;12.374;2022-09-03T10:27:21;1.75;;;1.33;;
12437;SDS011;6283;51.330;12.374;2022-09-03T10:29:48;1.75;;;1.38;;
12437;SDS011;6283;51.330;12.374;2022-09-03T10:40:23;2.28;;;1.50;;
12437;SDS011;6283;51.330;12.374;2022-09-03T10:43:20;3.45;;;1.33;;
12437;SDS011;6283;51.330;12.374;2022-09-03T10:45:51;2.17;;;1.38;;
12437;SDS011;6283;51.330;12.374;2022-09-03T10:48:26;1.33;;;1.23;;
12437;SDS011;6283;51.330;12.374;2022-09-03T11:04:42;1.63;;;1.52;;
12437;SDS011;6283;51.330;12.374;2022-09-03T11:07:23;1.48;;;1.38;;
12437;SDS011;6283;51.330;12.374;2022-09-03T11:10:05;3.67;;;1.60;;
12437;SDS011;6283;51.330;12.374;2022-09-03T11:18:47;1.70;;;1.60;;
12437;SDS011;6283;51.330;12.374;2022-09-03T11:21:06;3.42;;;1.40;;
12437;SDS011;6283;51.330;12.374;2022-09-03T11:23:37;1.50;;;1.40;;
12437;SDS011;6283;51.330;12.374;2022-09-03T11:26:12;2.75;;;1.50;;
12437;SDS011;6283;51.330;12.374;2022-09-03T11:31:44;1.88;;;1.48;;
12437;SDS011;6283;51.330;12.374;2022-09-03T11:34:14;2.10;;;1.40;;
12437;SDS011;6283;51.330;12.374;2022-09-03T11:36:47;1.55;;;1.45;;
12437;SDS011;6283;51.330;12.374;2022-09-03T11:41:40;2.90;;;1.42;;
12437;SDS011;6283;51.330;12.374;2022-09-03T11:44:16;4.10;;;1.85;;
12437;SDS011;6283;51.330;12.374;2022-09-03T11:47:00;1.88;;;1.40;;
12437;SDS011;6283;51.330;12.374;2022-09-03T11:49:42;1.98;;;1.70;;
12437;SDS011;6283;51.330;12.374;2022-09-03T11:52:10;1.67;;;1.58;;
12437;SDS011;6283;51.330;12.374;2022-09-03T11:54:43;1.60;;;1.50;;
12437;SDS011;6283;51.330;12.374;2022-09-03T11:57:13;2.15;;;1.60;;
12437;SDS011;6283;51.330;12.374;2022-09-03T11:59:40;3.00;;;1.52;;
12437;SDS011;6283;51.330;12.374;2022-09-03T12:07:24;2.25;;;1.52;;
12437;SDS011;6283;51.330;12.374;2022-09-03T12:13:15;4.20;;;1.60;;
12437;SDS011;6283;51.330;12.374;2022-09-03T12:16:07;1.73;;;1.63;;
12437;SDS011;6283;51.330;12.374;2022-09-03T12:18:59;1.67;;;1.58;;
12437;SDS011;6283;51.330;12.374;2022-09-03T12:21:28;2.35;;;1.60;;
12437;SDS011;6283;51.330;12.374;2022-09-03T12:23:54;1.55;;;1.45;;
12437;SDS011;6283;51.330;12.374;2022-09-03T12:26:21;1.67;;;1.58;;
12437;SDS011;6283;51.330;12.374;2022-09-03T12:28:52;7.70;;;3.65;;
12437;SDS011;6283;51.330;12.374;2022-09-03T12:31:29;4.00;;;1.80;;
12437;SDS011;6283;51.330;12.374;2022-09-03T12:34:01;3.50;;;1.85;;
12437;SDS011;6283;51.330;12.374;2022-09-03T12:36:35;2.97;;;1.52;;
12437;SDS011;6283;51.330;12.374;2022-09-03T12:39:14;2.78;;;1.70;;
12437;SDS011;6283;51.330;12.374;2022-09-03T12:44:37;1.60;;;1.50;;
12437;SDS011;6283;51.330;12.374;2022-09-03T12:49:42;4.50;;;1.70;;
12437;SDS011;6283;51.330;12.374;2022-09-03T12:52:17;2.22;;;1.50;;
12437;SDS011;6283;51.330;12.374;2022-09-03T12:54:52;1.80;;;1.70;;
12437;SDS011;6283;51.330;12.374;2022-09-03T12:57:40;1.38;;;1.27;;
12437;SDS011;6283;51.330;12.374;2022-09-03T13:00:14;2.53;;;1.83;;
12437;SDS011;6283;51.330;12.374;2022-09-03T13:03:43;3.40;;;2.60;;
12437;SDS011;6283;51.330;12.374;2022-09-03T13:05:43;1.98;;;1.50;;
12437;SDS011;6283;51.330;12.374;2022-09-03T13:08:21;1.88;;;1.77;;
12437;SDS011;6283;51.330;12.374;2022-09-03T13:10:51;1.60;;;1.50;;
12437;SDS011;6283;51.330;12.374;2022-09-03T13:13:21;2.47;;;1.50;;
12437;SDS011;6283;51.330;12.374;2022-09-03T13:31:59;1.70;;;1.60;;
12437;SDS011;6283;51.330;12.374;2022-09-03T13:34:39;1.92;;;1.50;;
12437;SDS011;6283;51.330;12.374;2022-09-03T13:38:12;1.77;;;1.67;;
12437;SDS011;6283;51.330;12.374;2022-09-03T13:46:16;1.60;;;1.50;;
12437;SDS011;6283;51.330;12.374;2022-09-03T13:48:48;1.70;;;1.60;;
12437;SDS011;6283;51.330;12.374;2022-09-03T13:51:45;1.95;;;1.55;;
12437;SDS011;6283;51.330;12.374;2022-09-03T13:54:19;2.10;;;1.60;;
12437;SDS011;6283;51.330;12.374;2022-09-03T13:57:04;2.30;;;1.52;;
12437;SDS011;6283;51.330;12.374;2022-09-03T14:10:42;2.42;;;2.20;;
12437;SDS011;6283;51.330;12.374;2022-09-03T14:13:21;2.05;;;1.95;;
12437;SDS011;6283;51.330;12.374;2022-09-03T14:16:36;2.28;;;1.90;;
12437;SDS011;6283;51.330;12.374;2022-09-03T14:22:05;1.70;;;1.60;;
12437;SDS011;6283;51.330;12.374;2022-09-03T14:27:28;2.00;;;1.83;;
12437;SDS011;6283;51.330;12.374;2022-09-03T14:29:59;2.90;;;1.50;;
12437;SDS011;6283;51.330;12.374;2022-09-03T14:32:29;1.65;;;1.55;;
12437;SDS011;6283;51.330;12.374;2022-09-03T14:37:49;1.67;;;1.58;;
12437;SDS011;6283;51.330;12.374;2022-09-03T14:51:31;4.05;;;1.65;;
12437;SDS011;6283;51.330;12.374;2022-09-03T15:02:23;1.50;;;1.40;;
12437;SDS011;6283;51.330;12.374;2022-09-03T15:05:11;3.83;;;1.85;;
12437;SDS011;6283;51.330;12.374;2022-09-03T15:07:48;2.80;;;1.70;;
12437;SDS011;6283;51.330;12.374;2022-09-03T15:12:58;1.95;;;1.67;;
12437;SDS011;6283;51.330;12.374;2022-09-03T15:29:34;2.10;;;1.90;;
12437;SDS011;6283;51.330;12.374;2022-09-03T15:37:33;2.65;;;1.67;;
12437;SDS011;6283;51.330;12.374;2022-09-03T15:43:05;3.15;;;1.58;;
12437;SDS011;6283;51.330;12.374;2022-09-03T15:52:07;2.15;;;2.05;;
12437;SDS011;6283;51.330;12.374;2022-09-03T16:00:29;1.90;;;1.80;;
12437;SDS011;6283;51.330;12.374;2022-09-03T16:03:09;3.03;;;1.88;;
12437;SDS011;6283;51.330;12.374;2022-09-03T16:05:41;5.18;;;2.15;;
12437;SDS011;6283;51.330;12.374;2022-09-03T16:16:04;1.77;;;1.67;;
12437;SDS011;6283;51.330;12.374;2022-09-03T16:21:13;1.40;;;1.40;;
12437;SDS011;6283;51.330;12.374;2022-09-03T16:26:55;2.25;;;1.67;;
12437;SDS011;6283;51.330;12.374;2022-09-03T16:29:33;1.90;;;1.80;;
12437;SDS011;6283;51.330;12.374;2022-09-03T16:32:06;2.17;;;1.50;;
12437;SDS011;6283;51.330;12.374;2022-09-03T16:56:30;1.80;;;1.70;;
12437;SDS011;6283;51.330;12.374;2022-09-03T17:01:54;1.98;;;1.65;;
12437;SDS011;6283;51.330;12.374;2022-09-03T17:07:12;3.47;;;1.75;;
12437;SDS011;6283;51.330;12.374;2022-09-03T17:10:02;2.03;;;1.50;;
12437;SDS011;6283;51.330;12.374;2022-09-03T17:18:18;1.92;;;1.83;;
12437;SDS011;6283;51.330;12.374;2022-09-03T17:34:22;2.03;;;1.83;;
12437;SDS011;6283;51.330;12.374;2022-09-03T17:42:39;5.20;;;2.55;;
12437;SDS011;6283;51.330;12.374;2022-09-03T17:47:54;2.78;;;1.80;;
12437;SDS011;6283;51.330;12.374;2022-09-03T17:53:30;2.10;;;1.90;;
12437;SDS011;6283;51.330;12.374;2022-09-03T17:58:52;5.53;;;2.22;;
12437;SDS011;6283;51.330;12.374;2022-09-03T18:01:37;2.78;;;2.00;;
12437;SDS011;6283;51.330;12.374;2022-09-03T18:04:48;2.83;;;2.00;;
12437;SDS011;6283;51.330;12.374;2022-09-03T18:07:31;4.07;;;2.35;;
12437;SDS011;6283;51.330;12.374;2022-09-03T18:10:33;3.42;;;2.10;;
12437;SDS011;6283;51.330;12.374;2022-09-03T18:13:10;2.10;;;1.85;;
12437;SDS011;6283;51.330;12.374;2022-09-03T18:18:28;3.20;;;2.53;;
12437;SDS011;6283;51.330;12.374;2022-09-03T18:20:59;3.20;;;2.28;;
12437;SDS011;6283;51.330;12.374;2022-09-03T18:26:41;2.50;;;2.10;;
12437;SDS011;6283;51.330;12.374;2022-09-03T18:30:05;2.72;;;2.42;;
12437;SDS011;6283;51.330;12.374;2022-09-03T18:32:43;6.53;;;1.90;;
12437;SDS011;6283;51.330;12.374;2022-09-03T18:35:28;3.35;;;2.47;;
12437;SDS011;6283;51.330;12.374;2022-09-03T18:38:13;2.22;;;2.03;;
12437;SDS011;6283;51.330;12.374;2022-09-03T18:41:05;5.40;;;2.22;;
12437;SDS011;6283;51.330;12.374;2022-09-03T18:46:58;2.15;;;2.00;;
12437;SDS011;6283;51.330;12.374;2022-09-03T18:49:57;12.10;;;2.95;;
12437;SDS011;6283;51.330;12.374;2022-09-03T18:52:53;2.97;;;2.03;;
12437;SDS011;6283;51.330;12.374;2022-09-03T18:55:59;2.78;;;2.30;;
12437;SDS011;6283;51.330;12.374;2022-09-03T18:59:27;3.20;;;2.30;;
12437;SDS011;6283;51.330;12.374;2022-09-03T19:02:32;3.78;;;2.60;;
12437;SDS011;6283;51.330;12.374;2022-09-03T19:11:54;3.25;;;2.40;;
12437;SDS011;6283;51.330;12.374;2022-09-03T19:21:35;2.67;;;2.40;;
12437;SDS011;6283;51.330;12.374;2022-09-03T19:23:56;5.05;;;2.45;;
12437;SDS011;6283;51.330;12.374;2022-09-03T19:35:45;2.90;;;2.60;;
12437;SDS011;6283;51.330;12.374;2022-09-03T19:38:41;3.10;;;2.80;;
12437;SDS011;6283;51.330;12.374;2022-09-03T19:44:33;3.47;;;2.60;;
12437;SDS011;6283;51.330;12.374;2022-09-03T19:51:00;3.25;;;2.95;;
12437;SDS011;6283;51.330;12.374;2022-09-03T19:54:20;3.47;;;2.72;;
12437;SDS011;6283;51.330;12.374;2022-09-03T19:57:06;3.58;;;2.70;;
12437;SDS011;6283;51.330;12.374;2022-09-03T19:59:53;4.35;;;2.55;;
12437;SDS011;6283;51.330;12.374;2022-09-03T20:02:39;8.00;;;3.08;;
12437;SDS011;6283;51.330;12.374;2022-09-03T20:05:25;6.53;;;2.83;;
12437;SDS011;6283;51.330;12.374;2022-09-03T20:08:11;4.40;;;2.78;;
12437;SDS011;6283;51.330;12.374;2022-09-03T20:10:57;3.75;;;3.25;;
12437;SDS011;6283;51.330;12.374;2022-09-03T20:13:24;3.85;;;2.60;;
12437;SDS011;6283;51.330;12.374;2022-09-03T20:21:32;3.83;;;3.08;;
12437;SDS011;6283;51.330;12.374;2022-09-03T20:45:36;4.43;;;2.80;;
12437;SDS011;6283;51.330;12.374;2022-09-03T20:48:34;5.13;;;3.20;;
12437;SDS011;6283;51.330;12.374;2022-09-03T20:51:09;3.38;;;3.08;;
12437;SDS011;6283;51.330;12.374;2022-09-03T20:53:53;5.18;;;3.35;;
12437;SDS011;6283;51.330;12.374;2022-09-03T21:07:42;3.63;;;3.15;;
12437;SDS011;6283;51.330;12.374;2022-09-03T21:10:41;3.53;;;3.22;;
12437;SDS011;6283;51.330;12.374;2022-09-03T21:16:30;7.43;;;3.15;;
12437;SDS011;6283;51.330;12.374;2022-09-03T21:19:02;4.22;;;2.95;;
12437;SDS011;6283;51.330;12.374;2022-09-03T21:26:50;4.07;;;3.10;;
12437;SDS011;6283;51.330;12.374;2022-09-03T21:37:18;3.63;;;3.13;;
12437;SDS011;6283;51.330;12.374;2022-09-03T21:39:52;4.15;;;3.10;;
12437;SDS011;6283;51.330;12.374;2022-09-03T21:42:25;4.78;;;3.10;;
12437;SDS011;6283;51.330;12.374;2022-09-03T21:47:46;4.60;;;3.28;;
12437;SDS011;6283;51.330;12.374;2022-09-03T21:50:19;4.18;;;2.90;;
12437;SDS011;6283;51.330;12.374;2022-09-03T21:58:14;3.63;;;3.00;;
12437;SDS011;6283;51.330;12.374;2022-09-03T22:00:46;4.07;;;2.85;;
12437;SDS011;6283;51.330;12.374;2022-09-03T22:03:15;3.40;;;3.00;;
12437;SDS011;6283;51.330;12.374;2022-09-03T22:05:56;3.30;;;3.00;;
12437;SDS011;6283;51.330;12.374;2022-09-03T22:08:34;3.17;;;2.88;;
12437;SDS011;6283;51.330;12.374;2022-09-03T22:11:38;5.13;;;3.20;;
12437;SDS011;6283;51.330;12.374;2022-09-03T22:14:09;3.70;;;3.10;;